createdAt,value
2023-03-07T00:01:31.184Z,4.90
2023-03-07T00:06:32.830Z,4.83
2023-03-07T00:11:34.472Z,4.83
2023-03-07T00:16:36.145Z,4.84
2023-03-07T00:21:37.875Z,4.85
2023-03-07T00:26:39.853Z,4.76
2023-03-07T00:31:41.476Z,4.73
2023-03-07T00:36:43.185Z,4.68
2023-03-07T00:41:44.844Z,4.58
2023-03-07T00:46:46.568Z,4.57
2023-03-07T00:51:48.452Z,4.60
2023-03-07T00:56:50.851Z,4.62
2023-03-07T01:01:52.613Z,4.59
2023-03-07T01:06:54.257Z,4.55
2023-03-07T01:11:55.950Z,4.52
2023-03-07T01:16:57.932Z,4.48
2023-03-07T01:21:59.800Z,4.37
2023-03-07T01:27:01.922Z,4.32
2023-03-07T01:32:03.817Z,4.24
2023-03-07T01:37:05.713Z,4.17
2023-03-07T01:42:07.734Z,4.09
2023-03-07T01:47:09.600Z,4.03
2023-03-07T01:52:31.482Z,4.00
2023-03-07T01:57:38.372Z,3.92
2023-03-07T02:02:46.022Z,3.88
2023-03-07T02:07:54.019Z,3.82
2023-03-07T02:13:00.332Z,3.68
2023-03-07T02:18:04.374Z,3.63
2023-03-07T02:23:13.564Z,3.52
2023-03-07T02:28:17.353Z,3.42
2023-03-07T02:33:19.174Z,3.40
2023-03-07T02:38:22.684Z,3.39
2023-03-07T02:43:24.973Z,3.40
2023-03-07T02:48:26.559Z,3.36
2023-03-07T02:53:28.463Z,3.32
2023-03-07T02:58:30.188Z,3.35
2023-03-07T03:03:31.935Z,3.38
2023-03-07T03:08:33.702Z,3.39
2023-03-07T03:13:37.169Z,3.52
2023-03-07T03:18:41.500Z,3.60
2023-03-07T03:23:43.331Z,3.64
2023-03-07T03:28:45.472Z,3.67
2023-03-07T03:33:49.337Z,3.64
2023-03-07T03:38:59.301Z,3.49
2023-03-07T03:44:01.422Z,3.31
2023-03-07T03:49:05.128Z,3.23
2023-03-07T03:54:07.964Z,3.17
2023-03-07T03:59:11.111Z,3.11
2023-03-07T04:04:12.835Z,3.07
2023-03-07T04:09:15.207Z,3.10
2023-03-07T04:14:21.039Z,3.08
2023-03-07T04:19:23.033Z,3.03
2023-03-07T04:24:25.845Z,3.02
2023-03-07T04:29:27.610Z,2.99
2023-03-07T04:34:36.475Z,2.93
2023-03-07T04:39:38.612Z,2.91
2023-03-07T04:44:42.652Z,2.87
2023-03-07T04:49:44.429Z,2.82
2023-03-07T04:54:46.327Z,2.81
2023-03-07T04:59:47.992Z,2.79
2023-03-07T05:04:50.324Z,2.74
2023-03-07T05:09:52.109Z,2.72
2023-03-07T05:14:53.869Z,2.71
2023-03-07T05:19:56.133Z,2.71
2023-03-07T05:24:58.644Z,2.67
2023-03-07T05:30:01.092Z,2.66
2023-03-07T05:35:04.206Z,2.70
2023-03-07T05:40:15.781Z,2.72
2023-03-07T05:45:21.238Z,2.78
2023-03-07T05:50:23.976Z,2.87
2023-03-07T05:55:25.789Z,2.93
2023-03-07T06:00:28.331Z,2.99
2023-03-07T06:05:34.456Z,3.07
2023-03-07T06:10:40.028Z,3.16
2023-03-07T06:15:44.237Z,3.26
2023-03-07T06:20:58.774Z,3.37
2023-03-07T06:26:03.181Z,3.46
2023-03-07T06:31:12.831Z,3.57
2023-03-07T06:36:17.268Z,3.65
2023-03-07T06:41:22.371Z,3.74
2023-03-07T06:46:25.669Z,3.88
2023-03-07T06:51:28.620Z,3.97
2023-03-07T06:56:34.328Z,4.13
2023-03-07T07:01:37.421Z,4.28
2023-03-07T07:06:39.155Z,4.44
2023-03-07T07:11:40.928Z,4.64
2023-03-07T07:16:46.253Z,4.86
2023-03-07T07:21:48.060Z,4.99
2023-03-07T07:26:49.718Z,5.15
2023-03-07T07:31:51.531Z,5.26
2023-03-07T07:36:54.681Z,5.37
2023-03-07T07:41:56.492Z,5.60
2023-03-07T07:47:01.584Z,5.87
2023-03-07T07:52:03.464Z,6.11
2023-03-07T07:57:05.369Z,6.22
2023-03-07T08:02:07.405Z,6.49
2023-03-07T08:07:09.124Z,6.66
2023-03-07T08:12:12.547Z,6.92
2023-03-07T08:17:14.464Z,7.12
2023-03-07T08:22:16.971Z,7.32
2023-03-07T08:27:18.611Z,7.45
2023-03-07T08:32:20.257Z,7.70
2023-03-07T08:37:21.924Z,7.87
2023-03-07T08:42:23.578Z,7.98
2023-03-07T08:47:25.390Z,8.21
2023-03-07T08:52:27.075Z,8.43
2023-03-07T08:57:28.719Z,8.58
2023-03-07T09:02:30.347Z,8.71
2023-03-07T09:07:32.157Z,8.74
2023-03-07T09:12:34.563Z,8.91
2023-03-07T09:17:36.500Z,9.07
2023-03-07T09:22:38.445Z,9.26
2023-03-07T09:27:40.118Z,9.37
2023-03-07T09:32:42.690Z,9.63
2023-03-07T09:37:44.326Z,9.66
2023-03-07T09:42:55.899Z,9.76
2023-03-07T09:48:35.320Z,10.01
2023-03-07T09:53:39.076Z,10.34
2023-03-07T09:58:45.214Z,10.56
2023-03-07T10:03:54.646Z,10.69
2023-03-07T10:08:59.816Z,10.83
2023-03-07T10:14:09.085Z,10.94
2023-03-07T10:19:35.955Z,11.04
2023-03-07T10:25:11.711Z,11.27
2023-03-07T10:30:18.015Z,11.28
2023-03-07T10:35:22.197Z,11.17
2023-03-07T10:40:28.724Z,11.28
2023-03-07T10:45:32.868Z,11.29
2023-03-07T10:50:55.454Z,11.46
2023-03-07T10:56:11.542Z,11.54
2023-03-07T11:01:17.690Z,11.64
2023-03-07T11:06:50.990Z,11.70
2023-03-07T11:12:05.780Z,11.82
2023-03-07T11:17:19.976Z,12.14
2023-03-07T11:22:23.937Z,12.53
2023-03-07T11:27:33.698Z,12.84
2023-03-07T11:32:40.131Z,12.72
2023-03-07T11:37:52.597Z,12.42
2023-03-07T11:43:21.997Z,12.61
2023-03-07T11:48:52.337Z,12.64
2023-03-07T11:54:00.106Z,12.28
2023-03-07T11:59:42.127Z,11.93
2023-03-07T12:05:04.149Z,11.84
2023-03-07T12:10:29.217Z,12.21
2023-03-07T12:16:08.003Z,12.24
2023-03-07T12:21:46.866Z,12.17
2023-03-07T12:27:07.174Z,12.02
2023-03-07T12:32:14.464Z,12.18
2023-03-07T12:37:25.447Z,12.23
2023-03-07T12:42:38.468Z,12.30
2023-03-07T12:47:59.794Z,12.17
2023-03-07T12:53:07.507Z,12.39
2023-03-07T12:58:24.369Z,12.36
2023-03-07T13:03:55.585Z,12.00
2023-03-07T13:09:04.112Z,11.74
2023-03-07T13:14:06.009Z,11.67
2023-03-07T13:19:35.684Z,11.58
2023-03-07T13:24:37.305Z,11.73
2023-03-07T13:30:03.798Z,11.29
2023-03-07T13:35:09.761Z,11.35
2023-03-07T13:40:39.632Z,11.37
2023-03-07T13:45:41.245Z,11.51
2023-03-07T13:50:42.976Z,11.75
2023-03-07T13:55:47.571Z,11.27
2023-03-07T14:01:02.896Z,11.09
2023-03-07T14:06:17.206Z,10.83
2023-03-07T14:11:30.655Z,10.60
2023-03-07T14:16:35.226Z,10.54
2023-03-07T14:22:00.914Z,10.43
2023-03-07T14:27:12.792Z,10.15
2023-03-07T14:32:24.471Z,9.86
2023-03-07T14:37:30.884Z,9.51
2023-03-07T14:42:55.027Z,9.38
2023-03-07T14:48:08.931Z,9.01
2023-03-07T14:53:19.634Z,8.54
2023-03-07T14:58:24.010Z,8.65
2023-03-07T15:03:26.150Z,8.76
2023-03-07T15:08:38.487Z,8.69
2023-03-07T15:13:58.548Z,8.53
2023-03-07T15:19:24.370Z,8.21
2023-03-07T15:24:31.234Z,8.22
2023-03-07T15:29:33.598Z,8.09
2023-03-07T15:34:37.648Z,7.88
2023-03-07T15:39:39.308Z,7.68
2023-03-07T15:44:40.916Z,7.49
2023-03-07T15:49:58.803Z,7.54
2023-03-07T15:55:05.417Z,7.48
2023-03-07T16:00:20.441Z,7.43
2023-03-07T16:05:23.012Z,7.25
2023-03-07T16:10:28.401Z,7.00
2023-03-07T16:15:30.239Z,7.02
2023-03-07T16:20:31.804Z,6.90
2023-03-07T16:25:34.045Z,6.75
2023-03-07T16:30:35.713Z,6.66
2023-03-07T16:35:37.368Z,6.62
2023-03-07T16:40:44.590Z,6.57
2023-03-07T16:45:46.296Z,6.52
2023-03-07T16:50:47.952Z,6.42
2023-03-07T16:55:50.922Z,6.13
2023-03-07T17:00:53.733Z,6.09
2023-03-07T17:05:55.460Z,6.05
2023-03-07T17:10:57.513Z,6.03
2023-03-07T17:15:59.159Z,6.01
2023-03-07T17:21:00.859Z,5.92
2023-03-07T17:26:02.547Z,5.92
2023-03-07T17:31:04.316Z,5.82
2023-03-07T17:36:06.424Z,5.84
2023-03-07T17:41:08.142Z,5.83
2023-03-07T17:46:11.537Z,5.69
2023-03-07T17:51:13.494Z,5.67
2023-03-07T17:56:15.153Z,5.59
2023-03-07T18:01:16.841Z,5.54
2023-03-07T18:06:18.549Z,5.53
2023-03-07T18:11:20.389Z,5.48
2023-03-07T18:16:22.212Z,5.49
2023-03-07T18:21:23.961Z,5.40
2023-03-07T18:26:25.797Z,5.43
2023-03-07T18:31:30.324Z,5.33
2023-03-07T18:36:31.977Z,5.32
2023-03-07T18:41:33.596Z,5.31
2023-03-07T18:46:37.181Z,5.28
2023-03-07T18:51:39.507Z,5.24
2023-03-07T18:56:42.598Z,5.16
2023-03-07T19:01:45.000Z,5.14
2023-03-07T19:06:47.642Z,5.13
2023-03-07T19:11:49.278Z,5.04
2023-03-07T19:16:50.997Z,5.03
2023-03-07T19:21:52.914Z,5.01
2023-03-07T19:26:54.493Z,4.96
2023-03-07T19:31:56.094Z,4.95
2023-03-07T19:36:57.801Z,4.93
2023-03-07T19:41:59.663Z,4.92
2023-03-07T19:47:01.320Z,4.86
2023-03-07T19:52:03.022Z,4.86
2023-03-07T19:57:04.689Z,4.82
2023-03-07T20:02:06.957Z,4.83
2023-03-07T20:07:08.678Z,4.80
2023-03-07T20:12:10.461Z,4.71
2023-03-07T20:17:12.407Z,4.70
2023-03-07T20:22:14.163Z,4.64
2023-03-07T20:27:20.393Z,4.58
2023-03-07T20:32:23.185Z,4.57
2023-03-07T20:37:24.857Z,4.61
2023-03-07T20:42:27.134Z,4.49
2023-03-07T20:47:28.821Z,4.44
2023-03-07T20:52:30.491Z,4.42
2023-03-07T20:57:32.084Z,4.40
2023-03-07T21:02:33.669Z,4.34
2023-03-07T21:07:35.251Z,4.27
2023-03-07T21:12:36.915Z,4.19
2023-03-07T21:17:38.625Z,4.19
2023-03-07T21:22:40.662Z,4.26
2023-03-07T21:27:42.257Z,4.33
2023-03-07T21:32:43.845Z,4.34
2023-03-07T21:37:45.581Z,4.33
2023-03-07T21:42:47.633Z,4.34
2023-03-07T21:47:53.318Z,4.32
2023-03-07T21:52:55.152Z,4.30
2023-03-07T21:57:56.768Z,4.25
2023-03-07T22:02:59.103Z,4.11
2023-03-07T22:08:00.730Z,4.02
2023-03-07T22:13:02.371Z,3.97
2023-03-07T22:18:04.172Z,3.91
2023-03-07T22:23:05.817Z,3.86
2023-03-07T22:28:07.543Z,3.76
2023-03-07T22:33:09.165Z,3.69
2023-03-07T22:38:10.833Z,3.57
2023-03-07T22:43:12.406Z,3.42
2023-03-07T22:48:15.983Z,3.31
2023-03-07T22:53:17.695Z,3.21
2023-03-07T22:58:19.307Z,3.13
2023-03-07T23:03:21.083Z,3.07
2023-03-07T23:08:22.721Z,3.08
2023-03-07T23:13:24.342Z,3.04
2023-03-07T23:18:25.974Z,3.05
2023-03-07T23:23:27.576Z,2.98
2023-03-07T23:28:29.511Z,2.94
2023-03-07T23:33:31.187Z,2.88
2023-03-07T23:38:32.816Z,2.99
2023-03-07T23:43:34.762Z,3.03
2023-03-07T23:48:36.428Z,3.05
2023-03-07T23:53:38.070Z,3.05
2023-03-07T23:58:40.064Z,2.96
